createdAt,value
2023-03-26T00:01:58.218Z,22.70
2023-03-26T00:05:58.223Z,22.71
2023-03-26T00:09:58.176Z,22.75
2023-03-26T00:13:58.192Z,22.71
2023-03-26T00:17:58.173Z,22.67
2023-03-26T00:21:58.222Z,22.64
2023-03-26T00:25:58.196Z,22.61
2023-03-26T00:29:58.230Z,22.61
2023-03-26T00:33:58.278Z,22.66
2023-03-26T00:37:58.327Z,22.68
2023-03-26T00:41:58.321Z,22.70
2023-03-26T00:45:58.598Z,22.70
2023-03-26T00:49:58.392Z,22.70
2023-03-26T00:53:58.484Z,22.64
2023-03-26T00:57:58.525Z,22.63
2023-03-26T01:01:58.630Z,22.57
2023-03-26T01:05:58.642Z,22.50
2023-03-26T01:09:58.766Z,22.47
2023-03-26T01:13:58.916Z,22.47
2023-03-26T01:17:59.008Z,22.44
2023-03-26T01:21:59.109Z,22.40
2023-03-26T01:25:59.147Z,22.32
2023-03-26T01:29:59.302Z,22.30
2023-03-26T01:33:59.453Z,22.33
2023-03-26T01:37:59.563Z,22.35
2023-03-26T01:41:59.679Z,22.36
2023-03-26T01:45:59.823Z,22.39
2023-03-26T01:49:59.918Z,22.38
2023-03-26T01:54:00.072Z,22.38
2023-03-26T01:58:00.168Z,22.32
2023-03-26T02:02:00.452Z,22.30
2023-03-26T02:06:00.465Z,22.29
2023-03-26T02:10:00.705Z,22.26
2023-03-26T02:14:00.844Z,22.26
2023-03-26T02:18:01.139Z,22.24
2023-03-26T02:22:01.170Z,22.29
2023-03-26T02:26:01.368Z,22.30
2023-03-26T02:30:01.520Z,22.29
2023-03-26T02:34:01.715Z,22.33
2023-03-26T02:38:01.860Z,22.29
2023-03-26T02:42:02.050Z,22.26
2023-03-26T02:46:02.251Z,22.23
2023-03-26T02:50:02.413Z,22.19
2023-03-26T02:54:02.586Z,22.17
2023-03-26T02:58:02.843Z,22.13
2023-03-26T03:02:03.072Z,22.09
2023-03-26T03:06:03.033Z,22.06
2023-03-26T03:10:02.956Z,22.06
2023-03-26T03:14:02.928Z,22.03
2023-03-26T03:18:02.960Z,22.01
2023-03-26T03:22:02.828Z,21.99
2023-03-26T03:26:02.840Z,21.95
2023-03-26T03:30:02.794Z,21.93
2023-03-26T03:34:02.771Z,21.93
2023-03-26T03:38:02.727Z,21.91
2023-03-26T03:42:02.685Z,21.87
2023-03-26T03:46:02.910Z,21.79
2023-03-26T03:50:02.886Z,21.82
2023-03-26T03:54:02.890Z,21.82
2023-03-26T03:58:02.828Z,21.75
2023-03-26T04:02:02.814Z,21.75
2023-03-26T04:06:02.819Z,21.74
2023-03-26T04:10:02.810Z,21.74
2023-03-26T04:14:02.778Z,21.69
2023-03-26T04:18:02.825Z,21.69
2023-03-26T04:22:02.775Z,21.75
2023-03-26T04:26:02.758Z,21.74
2023-03-26T04:30:02.716Z,21.66
2023-03-26T04:34:02.737Z,21.66
2023-03-26T04:38:02.765Z,21.69
2023-03-26T04:42:02.744Z,21.72
2023-03-26T04:46:02.747Z,21.65
2023-03-26T04:50:02.743Z,21.62
2023-03-26T04:54:02.791Z,21.57
2023-03-26T04:58:02.824Z,21.59
2023-03-26T05:02:02.870Z,21.57
2023-03-26T05:06:02.907Z,21.57
2023-03-26T05:10:02.925Z,21.57
2023-03-26T05:14:02.932Z,21.55
2023-03-26T05:18:02.994Z,21.54
2023-03-26T05:22:03.460Z,21.50
2023-03-26T05:26:03.061Z,21.50
2023-03-26T05:30:03.055Z,21.48
2023-03-26T05:34:03.110Z,21.52
2023-03-26T05:38:03.132Z,21.52
2023-03-26T05:42:03.151Z,21.57
2023-03-26T05:46:03.254Z,21.55
2023-03-26T05:50:03.271Z,21.54
2023-03-26T05:54:03.301Z,21.54
2023-03-26T05:58:03.318Z,21.50
2023-03-26T06:02:03.432Z,21.48
2023-03-26T06:06:03.469Z,21.44
2023-03-26T06:10:03.566Z,21.45
2023-03-26T06:14:03.599Z,21.48
2023-03-26T06:18:03.694Z,21.54
2023-03-26T06:22:03.718Z,21.52
2023-03-26T06:26:03.763Z,21.51
2023-03-26T06:30:03.843Z,21.52
2023-03-26T06:34:03.890Z,21.50
2023-03-26T06:38:03.960Z,21.52
2023-03-26T06:42:04.028Z,21.57
2023-03-26T06:46:04.187Z,21.58
2023-03-26T06:50:04.053Z,21.57
2023-03-26T06:54:04.070Z,21.59
2023-03-26T06:58:04.110Z,21.61
2023-03-26T07:02:04.089Z,21.64
2023-03-26T07:06:04.108Z,21.61
2023-03-26T07:10:04.172Z,21.59
2023-03-26T07:14:04.189Z,21.62
2023-03-26T07:18:04.220Z,21.62
2023-03-26T07:22:04.203Z,21.66
2023-03-26T07:26:04.234Z,21.65
2023-03-26T07:30:04.253Z,21.68
2023-03-26T07:34:04.288Z,21.72
2023-03-26T07:38:04.399Z,21.74
2023-03-26T07:42:04.229Z,21.72
2023-03-26T07:46:04.280Z,21.78
2023-03-26T07:50:04.234Z,21.77
2023-03-26T07:54:04.256Z,21.71
2023-03-26T07:58:04.167Z,21.75
2023-03-26T08:02:04.161Z,21.78
2023-03-26T08:06:04.133Z,21.82
2023-03-26T08:10:04.217Z,21.85
2023-03-26T08:14:04.358Z,21.93
2023-03-26T08:18:04.523Z,21.93
2023-03-26T08:22:04.499Z,21.93
2023-03-26T08:26:04.476Z,21.92
2023-03-26T08:30:04.479Z,21.95
2023-03-26T08:34:04.521Z,21.96
2023-03-26T08:38:04.593Z,22.02
2023-03-26T08:42:04.762Z,22.08
2023-03-26T08:46:04.750Z,22.13
2023-03-26T08:50:04.720Z,22.16
2023-03-26T08:54:04.693Z,22.17
2023-03-26T08:58:04.595Z,22.20
2023-03-26T09:02:04.603Z,22.24
2023-03-26T09:06:04.540Z,22.29
2023-03-26T09:10:04.497Z,22.26
2023-03-26T09:14:04.528Z,22.29
2023-03-26T09:18:04.463Z,22.29
2023-03-26T09:22:04.471Z,22.26
2023-03-26T09:26:04.717Z,22.29
2023-03-26T09:30:04.948Z,22.29
2023-03-26T09:34:04.894Z,22.19
2023-03-26T09:38:04.902Z,22.15
2023-03-26T09:42:04.830Z,22.13
2023-03-26T09:46:04.849Z,22.09
2023-03-26T09:50:04.750Z,22.13
2023-03-26T09:54:04.732Z,22.16
2023-03-26T09:58:04.790Z,22.13
2023-03-26T10:02:04.647Z,22.10
2023-03-26T10:06:04.599Z,22.10
2023-03-26T10:10:04.732Z,22.13
2023-03-26T10:14:04.735Z,22.15
2023-03-26T10:18:04.694Z,22.17
2023-03-26T10:22:05.636Z,22.19
2023-03-26T10:26:04.607Z,22.20
2023-03-26T10:30:04.748Z,22.24
2023-03-26T10:34:04.665Z,22.28
2023-03-26T10:38:04.661Z,22.30
2023-03-26T10:42:04.615Z,22.38
2023-03-26T10:46:04.595Z,22.43
2023-03-26T10:50:04.541Z,22.47
2023-03-26T10:54:04.487Z,22.52
2023-03-26T10:58:04.488Z,22.54
2023-03-26T11:02:04.443Z,22.57
2023-03-26T11:06:04.395Z,22.59
2023-03-26T11:10:04.387Z,22.61
2023-03-26T11:14:04.330Z,22.61
2023-03-26T11:18:04.336Z,22.63
2023-03-26T11:22:04.392Z,22.67
2023-03-26T11:26:04.213Z,22.74
2023-03-26T11:30:04.209Z,22.80
2023-03-26T11:34:04.304Z,22.84
2023-03-26T11:38:04.367Z,22.89
2023-03-26T11:42:04.405Z,22.91
2023-03-26T11:46:04.458Z,22.94
2023-03-26T11:50:04.460Z,23.00
2023-03-26T11:54:04.464Z,23.03
2023-03-26T11:58:04.483Z,23.03
2023-03-26T12:02:04.502Z,23.05
2023-03-26T12:06:04.452Z,23.07
2023-03-26T12:10:18.615Z,23.04
2023-03-26T12:14:05.401Z,23.00
2023-03-26T12:18:04.374Z,23.01
2023-03-26T12:22:04.326Z,23.00
2023-03-26T12:26:04.289Z,23.04
2023-03-26T12:30:04.280Z,23.03
2023-03-26T12:34:04.232Z,23.03
2023-03-26T12:38:04.189Z,23.01
2023-03-26T12:44:42.702Z,23.03
2023-03-26T12:47:54.558Z,23.03
2023-03-26T12:50:05.107Z,22.98
2023-03-26T12:54:04.035Z,22.97
2023-03-26T12:58:13.746Z,22.95
2023-03-26T13:02:05.012Z,22.93
2023-03-26T13:06:03.960Z,22.91
2023-03-26T13:10:03.907Z,22.84
2023-03-26T13:14:03.889Z,22.70
2023-03-26T13:18:03.886Z,22.57
2023-03-26T13:22:03.894Z,22.47
2023-03-26T13:26:04.054Z,22.22
2023-03-26T13:30:04.266Z,22.17
2023-03-26T13:34:04.439Z,22.22
2023-03-26T13:38:04.609Z,22.29
2023-03-26T13:42:04.798Z,22.33
2023-03-26T13:46:05.141Z,22.33
2023-03-26T13:50:05.060Z,22.36
2023-03-26T13:54:05.216Z,22.38
2023-03-26T13:58:05.335Z,22.38
2023-03-26T14:02:05.562Z,22.43
2023-03-26T14:06:05.657Z,22.53
2023-03-26T14:10:05.695Z,22.56
2023-03-26T14:14:05.823Z,22.52
2023-03-26T14:18:06.088Z,22.50
2023-03-26T14:22:06.090Z,22.47
2023-03-26T14:26:06.198Z,22.44
2023-03-26T14:30:06.321Z,22.46
2023-03-26T14:34:06.486Z,22.49
2023-03-26T14:38:06.608Z,22.49
2023-03-26T14:42:06.742Z,22.54
2023-03-26T14:46:06.817Z,22.54
2023-03-26T14:50:06.889Z,22.57
2023-03-26T14:54:06.977Z,22.60
2023-03-26T14:58:07.093Z,22.59
2023-03-26T15:02:07.211Z,22.54
2023-03-26T15:06:07.276Z,22.53
2023-03-26T15:10:07.389Z,22.52
2023-03-26T15:14:07.442Z,22.53
2023-03-26T15:18:07.611Z,22.54
2023-03-26T15:22:07.698Z,22.54
2023-03-26T15:26:07.832Z,22.53
2023-03-26T15:30:07.950Z,22.49
2023-03-26T15:34:08.091Z,22.50
2023-03-26T15:38:08.199Z,22.50
2023-03-26T15:42:08.320Z,22.53
2023-03-26T15:46:08.507Z,22.56
2023-03-26T15:50:08.568Z,22.57
2023-03-26T15:54:08.743Z,22.56
2023-03-26T15:58:08.838Z,22.59
2023-03-26T16:02:08.950Z,22.57
2023-03-26T16:06:09.034Z,22.57
2023-03-26T16:10:09.136Z,22.54
2023-03-26T16:14:09.293Z,22.53
2023-03-26T16:18:09.429Z,22.54
2023-03-26T16:22:09.540Z,22.53
2023-03-26T16:26:09.629Z,22.54
2023-03-26T16:30:09.789Z,22.54
2023-03-26T16:34:09.879Z,22.53
2023-03-26T16:38:10.003Z,22.53
2023-03-26T16:42:10.135Z,22.50
2023-03-26T16:46:10.282Z,22.50
2023-03-26T16:50:10.433Z,22.49
2023-03-26T16:54:10.513Z,22.46
2023-03-26T16:58:10.628Z,22.47
2023-03-26T17:02:10.785Z,22.44
2023-03-26T17:06:10.863Z,22.46
2023-03-26T17:10:11.002Z,22.46
2023-03-26T17:14:11.144Z,22.44
2023-03-26T17:18:11.433Z,22.44
2023-03-26T17:22:11.463Z,22.42
2023-03-26T17:26:11.599Z,22.40
2023-03-26T17:30:11.756Z,22.40
2023-03-26T17:34:11.931Z,22.42
2023-03-26T17:38:12.106Z,22.36
2023-03-26T17:42:13.086Z,22.39
2023-03-26T17:46:12.544Z,22.35
2023-03-26T17:50:12.617Z,22.33
2023-03-26T17:54:12.795Z,22.32
2023-03-26T17:58:13.037Z,22.29
2023-03-26T18:02:13.323Z,22.24
2023-03-26T18:06:13.453Z,22.26
2023-03-26T18:10:13.443Z,22.24
2023-03-26T18:14:13.409Z,22.26
2023-03-26T18:18:13.374Z,22.20
2023-03-26T18:22:13.325Z,22.13
2023-03-26T18:26:13.316Z,22.12
2023-03-26T18:30:13.252Z,22.16
2023-03-26T18:34:13.231Z,22.22
2023-03-26T18:38:13.188Z,22.20
2023-03-26T18:42:22.778Z,22.19
2023-03-26T18:46:14.216Z,22.15
2023-03-26T18:50:13.098Z,22.03
2023-03-26T18:54:13.252Z,21.98
2023-03-26T18:58:13.208Z,21.98
2023-03-26T19:02:13.588Z,22.01
2023-03-26T19:06:13.118Z,22.02
2023-03-26T19:10:13.066Z,22.03
2023-03-26T19:14:13.967Z,21.99
2023-03-26T19:18:13.092Z,22.03
2023-03-26T19:22:12.976Z,22.03
2023-03-26T19:26:12.959Z,21.99
2023-03-26T19:30:13.144Z,21.98
2023-03-26T19:34:13.748Z,21.92
2023-03-26T19:38:13.436Z,21.91
2023-03-26T19:42:13.504Z,21.87
2023-03-26T19:46:13.612Z,21.85
2023-03-26T19:50:13.537Z,21.85
2023-03-26T19:54:13.500Z,21.84
2023-03-26T19:58:13.521Z,21.81
2023-03-26T20:02:13.457Z,21.82
2023-03-26T20:06:13.431Z,21.78
2023-03-26T20:10:13.439Z,21.82
2023-03-26T20:14:13.564Z,21.85
2023-03-26T20:18:13.680Z,21.87
2023-03-26T20:22:13.613Z,21.85
2023-03-26T20:26:13.596Z,21.84
2023-03-26T20:30:16.204Z,21.82
2023-03-26T20:34:13.512Z,21.85
2023-03-26T20:38:13.436Z,21.82
2023-03-26T20:42:15.446Z,21.82
2023-03-26T20:46:13.397Z,21.79
2023-03-26T20:50:13.346Z,21.74
2023-03-26T20:54:13.314Z,21.72
2023-03-26T20:58:13.284Z,21.64
2023-03-26T21:02:13.276Z,21.68
2023-03-26T21:06:13.212Z,21.65
2023-03-26T21:10:13.136Z,21.69
2023-03-26T21:14:13.120Z,21.68
2023-03-26T21:18:13.099Z,21.66
2023-03-26T21:22:13.048Z,21.64
2023-03-26T21:26:13.050Z,21.64
2023-03-26T21:30:12.998Z,21.64
2023-03-26T21:34:12.959Z,21.65
2023-03-26T21:38:12.917Z,21.64
2023-03-26T21:42:12.867Z,21.58
2023-03-26T21:46:12.890Z,21.58
2023-03-26T21:50:12.788Z,21.59
2023-03-26T21:54:12.760Z,21.61
2023-03-26T21:58:12.722Z,21.62
2023-03-26T22:02:12.737Z,21.57
2023-03-26T22:06:12.721Z,21.57
2023-03-26T22:10:12.613Z,21.51
2023-03-26T22:14:12.578Z,21.51
2023-03-26T22:18:12.563Z,21.45
2023-03-26T22:22:12.544Z,21.41
2023-03-26T22:26:12.460Z,21.38
2023-03-26T22:30:12.438Z,21.38
2023-03-26T22:34:12.505Z,21.36
2023-03-26T22:38:12.399Z,21.34
2023-03-26T22:42:12.360Z,21.31
2023-03-26T22:46:12.370Z,21.36
2023-03-26T22:50:12.494Z,21.30
2023-03-26T22:54:12.546Z,21.28
2023-03-26T22:58:12.644Z,21.27
2023-03-26T23:02:12.743Z,21.23
2023-03-26T23:06:12.938Z,21.24
2023-03-26T23:10:12.998Z,21.26
2023-03-26T23:14:13.063Z,21.26
2023-03-26T23:18:13.172Z,21.27
2023-03-26T23:22:13.242Z,21.27
2023-03-26T23:26:13.321Z,21.30
2023-03-26T23:30:13.452Z,21.26
2023-03-26T23:34:13.655Z,21.23
2023-03-26T23:38:13.839Z,21.21
2023-03-26T23:42:13.723Z,21.20
2023-03-26T23:46:13.902Z,21.24
2023-03-26T23:50:13.967Z,21.23
2023-03-26T23:54:14.815Z,21.27
2023-03-26T23:58:14.142Z,21.27
